createdAt,value
2018-06-11T00:00:39.017Z,99974.66
2018-06-11T00:01:45.306Z,99981.62
2018-06-11T00:02:51.544Z,99971.25
2018-06-11T00:03:57.832Z,99971.83
2018-06-11T00:05:03.462Z,99975.56
2018-06-11T00:06:09.722Z,99977.92
2018-06-11T00:07:15.594Z,99978.36
2018-06-11T00:08:21.875Z,99982.64
2018-06-11T00:09:28.125Z,99983.91
2018-06-11T00:10:34.403Z,99984.22
2018-06-11T00:11:40.710Z,99980.77
2018-06-11T00:12:46.933Z,99983.32
2018-06-11T00:13:53.628Z,99980.45
2018-06-11T00:14:59.880Z,99983.20
2018-06-11T00:16:06.104Z,99979.70
2018-06-11T00:17:12.351Z,99974.27
2018-06-11T00:18:21.544Z,99976.66
2018-06-11T00:19:32.778Z,99973.37
2018-06-11T00:20:38.934Z,99971.10
2018-06-11T00:21:45.201Z,99973.75
2018-06-11T00:22:51.435Z,99977.84
2018-06-11T00:23:57.629Z,99983.86
2018-06-11T00:25:03.201Z,99983.64
2018-06-11T00:26:09.427Z,99982.73
2018-06-11T00:27:15.695Z,99979.61
2018-06-11T00:28:21.936Z,99988.33
2018-06-11T00:29:28.194Z,99983.66
2018-06-11T00:30:34.393Z,99980.98
2018-06-11T00:31:40.867Z,99975.14
2018-06-11T00:32:47.011Z,99979.90
2018-06-11T00:33:52.995Z,99978.27
2018-06-11T00:34:59.304Z,99978.77
2018-06-11T00:36:05.319Z,99977.52
2018-06-11T00:37:11.619Z,99982.01
2018-06-11T00:38:17.854Z,99984.61
2018-06-11T00:39:24.059Z,99979.13
2018-06-11T00:40:30.234Z,99980.98
2018-06-11T00:41:36.482Z,99980.24
2018-06-11T00:42:42.714Z,99974.60
2018-06-11T00:43:48.917Z,99978.13
2018-06-11T00:44:54.850Z,99981.89
2018-06-11T00:46:01.077Z,99981.14
2018-06-11T00:47:07.321Z,99979.44
2018-06-11T00:48:14.135Z,99984.02
2018-06-11T00:49:20.382Z,99984.44
2018-06-11T00:50:27.530Z,99976.78
2018-06-11T00:51:33.757Z,99977.52
2018-06-11T00:52:40.881Z,99975.77
2018-06-11T00:53:47.072Z,99976.19
2018-06-11T00:54:53.273Z,99976.89
2018-06-11T00:56:04.782Z,99980.13
2018-06-11T00:57:10.774Z,99976.88
2018-06-11T00:58:17.026Z,99983.42
2018-06-11T00:59:23.244Z,99993.31
2018-06-11T01:00:29.166Z,99991.14
2018-06-11T01:01:34.410Z,99990.98
2018-06-11T01:02:40.420Z,99990.67
2018-06-11T01:03:46.654Z,99997.95
2018-06-11T01:04:52.963Z,99996.19
2018-06-11T01:05:59.179Z,99999.27
2018-06-11T01:07:05.434Z,99997.61
2018-06-11T01:08:11.637Z,99996.47
2018-06-11T01:09:17.844Z,99994.98
2018-06-11T01:10:24.107Z,100003.48
2018-06-11T01:11:30.310Z,99998.23
2018-06-11T01:12:36.876Z,99996.30
2018-06-11T01:13:43.060Z,99994.97
2018-06-11T01:14:49.007Z,99993.63
2018-06-11T01:15:55.217Z,99988.95
2018-06-11T01:17:01.405Z,99993.79
2018-06-11T01:18:07.379Z,99989.81
2018-06-11T01:19:13.706Z,99989.05
2018-06-11T01:20:20.010Z,99988.89
2018-06-11T01:21:26.268Z,99987.06
2018-06-11T01:22:32.845Z,99990.23
2018-06-11T01:23:39.076Z,99988.59
2018-06-11T01:24:45.286Z,99979.97
2018-06-11T01:25:51.504Z,99977.48
2018-06-11T01:26:57.717Z,99982.25
2018-06-11T01:28:04.004Z,99989.70
2018-06-11T01:29:10.195Z,99986.16
2018-06-11T01:30:16.473Z,99985.23
2018-06-11T01:31:22.795Z,99990.34
2018-06-11T01:32:29.051Z,99987.94
2018-06-11T01:33:35.365Z,99989.12
2018-06-11T01:34:41.594Z,99992.52
2018-06-11T01:35:47.539Z,99992.09
2018-06-11T01:36:53.819Z,99989.36
2018-06-11T01:38:00.056Z,99987.55
2018-06-11T01:39:05.596Z,99987.09
2018-06-11T01:40:11.828Z,99987.38
2018-06-11T01:41:18.042Z,99986.08
2018-06-11T01:42:24.217Z,99981.13
2018-06-11T01:43:30.410Z,99990.32
2018-06-11T01:44:36.652Z,99991.28
2018-06-11T01:45:42.566Z,99987.04
2018-06-11T01:46:48.755Z,99986.53
2018-06-11T01:47:54.997Z,99986.08
2018-06-11T01:49:01.311Z,99982.85
2018-06-11T01:50:07.493Z,99989.05
2018-06-11T01:51:13.688Z,99985.31
2018-06-11T01:52:19.603Z,99982.98
2018-06-11T01:53:25.554Z,99985.02
2018-06-11T01:54:31.807Z,99983.94
2018-06-11T01:55:38.619Z,99992.31
2018-06-11T01:56:44.834Z,99992.48
2018-06-11T01:57:51.025Z,99991.50
2018-06-11T01:58:57.381Z,100002.05
2018-06-11T02:00:03.200Z,99998.63
2018-06-11T02:01:09.702Z,99998.42
2018-06-11T02:02:15.983Z,99999.45
2018-06-11T02:03:22.244Z,99996.34
2018-06-11T02:04:28.532Z,99994.36
2018-06-11T02:05:34.731Z,99998.29
2018-06-11T02:06:41.904Z,100002.83
2018-06-11T02:07:48.121Z,100004.28
2018-06-11T02:08:54.371Z,99997.00
2018-06-11T02:10:00.543Z,99994.27
2018-06-11T02:11:06.719Z,99994.23
2018-06-11T02:12:13.043Z,99994.20
2018-06-11T02:13:19.299Z,99992.11
2018-06-11T02:14:25.526Z,99984.20
2018-06-11T02:15:31.923Z,99986.13
2018-06-11T02:16:38.146Z,99985.28
2018-06-11T02:17:44.295Z,99983.52
2018-06-11T02:18:50.569Z,99994.53
2018-06-11T02:19:56.792Z,99994.13
2018-06-11T02:21:03.008Z,99999.26
2018-06-11T02:22:09.241Z,99994.16
2018-06-11T02:23:15.488Z,100001.82
2018-06-11T02:24:21.754Z,99997.11
2018-06-11T02:25:27.927Z,100001.46
2018-06-11T02:26:34.409Z,99997.42
2018-06-11T02:27:40.607Z,99997.98
2018-06-11T02:28:47.082Z,100001.22
2018-06-11T02:29:53.322Z,100002.00
2018-06-11T02:30:59.566Z,100003.04
2018-06-11T02:32:05.781Z,100010.11
2018-06-11T02:33:12.066Z,100006.83
2018-06-11T02:34:18.339Z,100005.27
2018-06-11T02:35:24.554Z,100007.61
2018-06-11T02:36:30.785Z,100009.20
2018-06-11T02:37:37.044Z,100016.61
2018-06-11T02:38:43.270Z,100013.34
2018-06-11T02:39:49.502Z,100013.48
2018-06-11T02:40:55.695Z,100012.97
2018-06-11T02:42:01.997Z,100019.61
2018-06-11T02:43:08.470Z,100009.74
2018-06-11T02:44:14.799Z,100008.41
2018-06-11T02:45:21.008Z,100013.91
2018-06-11T02:46:27.225Z,100009.73
2018-06-11T02:47:33.501Z,100008.53
2018-06-11T02:48:39.705Z,100009.23
2018-06-11T02:49:46.073Z,100015.48
2018-06-11T02:50:52.293Z,100010.70
2018-06-11T02:51:58.489Z,100008.78
2018-06-11T02:53:04.392Z,100013.03
2018-06-11T02:54:10.671Z,100013.30
2018-06-11T02:55:20.432Z,100015.48
2018-06-11T02:56:26.938Z,100014.08
2018-06-11T02:57:33.141Z,100011.18
2018-06-11T02:58:39.377Z,100011.89
2018-06-11T02:59:45.693Z,100008.95
2018-06-11T03:00:51.935Z,100006.14
2018-06-11T03:01:58.163Z,100008.66
2018-06-11T03:03:04.373Z,100013.61
2018-06-11T03:04:10.648Z,100007.33
2018-06-11T03:05:16.882Z,100004.62
2018-06-11T03:06:23.094Z,100007.07
2018-06-11T03:07:29.506Z,100012.45
2018-06-11T03:08:35.709Z,100002.59
2018-06-11T03:09:41.868Z,100003.77
2018-06-11T03:10:48.240Z,100010.23
2018-06-11T03:11:54.476Z,100012.11
2018-06-11T03:13:00.752Z,100010.66
2018-06-11T03:14:06.698Z,100010.23
2018-06-11T03:15:12.639Z,100010.05
2018-06-11T03:16:18.898Z,100011.94
2018-06-11T03:17:25.635Z,100009.12
2018-06-11T03:18:31.550Z,100012.58
2018-06-11T03:19:37.836Z,100019.34
2018-06-11T03:20:44.137Z,100010.21
2018-06-11T03:21:50.475Z,100020.69
2018-06-11T03:22:57.105Z,100018.78
2018-06-11T03:24:03.525Z,100024.31
2018-06-11T03:25:09.574Z,100018.72
2018-06-11T03:26:15.753Z,100014.23
2018-06-11T03:27:21.748Z,100016.28
2018-06-11T03:28:28.231Z,100020.29
2018-06-11T03:29:34.482Z,100025.54
2018-06-11T03:30:40.432Z,100031.74
2018-06-11T03:31:46.644Z,100030.91
2018-06-11T03:32:52.914Z,100030.63
2018-06-11T03:33:59.214Z,100029.02
2018-06-11T03:35:05.177Z,100029.34
2018-06-11T03:36:11.379Z,100037.16
2018-06-11T03:37:17.595Z,100030.58
2018-06-11T03:38:23.859Z,100035.56
2018-06-11T03:39:30.107Z,100038.11
2018-06-11T03:40:36.391Z,100035.41
2018-06-11T03:41:42.688Z,100035.27
2018-06-11T03:42:49.027Z,100033.66
2018-06-11T03:43:55.353Z,100035.22
2018-06-11T03:45:01.591Z,100027.55
2018-06-11T03:46:07.981Z,100035.27
2018-06-11T03:47:14.194Z,100037.63
2018-06-11T03:48:21.457Z,100035.73
2018-06-11T03:49:29.289Z,100042.35
2018-06-11T03:50:35.568Z,100042.01
2018-06-11T03:51:41.748Z,100044.66
2018-06-11T03:52:47.977Z,100046.66
2018-06-11T03:53:54.372Z,100044.02
2018-06-11T03:55:00.577Z,100040.66
2018-06-11T03:56:06.840Z,100038.06
2018-06-11T03:57:13.118Z,100041.88
2018-06-11T03:58:19.356Z,100042.78
2018-06-11T03:59:26.116Z,100043.25
2018-06-11T04:00:31.909Z,100041.59
2018-06-11T04:01:38.163Z,100036.20
2018-06-11T04:02:44.415Z,100043.59
2018-06-11T04:03:50.712Z,100044.65
2018-06-11T04:04:56.956Z,100044.95
2018-06-11T04:06:03.362Z,100040.18
2018-06-11T04:07:09.321Z,100037.96
2018-06-11T04:08:15.567Z,100046.28
2018-06-11T04:09:21.485Z,100047.31
2018-06-11T04:10:27.812Z,100045.56
2018-06-11T04:11:33.848Z,100045.03
2018-06-11T04:12:41.407Z,100045.80
2018-06-11T04:13:47.604Z,100045.62
2018-06-11T04:14:53.807Z,100045.56
2018-06-11T04:15:59.833Z,100050.63
2018-06-11T04:17:06.044Z,100046.57
2018-06-11T04:18:12.287Z,100045.72
2018-06-11T04:19:18.512Z,100044.69
2018-06-11T04:20:24.743Z,100044.30
2018-06-11T04:21:31.249Z,100050.66
2018-06-11T04:22:37.431Z,100046.28
2018-06-11T04:23:44.322Z,100049.12
2018-06-11T04:24:50.660Z,100056.97
2018-06-11T04:25:57.183Z,100052.02
2018-06-11T04:27:04.520Z,100059.07
2018-06-11T04:28:10.824Z,100059.73
2018-06-11T04:29:17.280Z,100056.17
2018-06-11T04:30:23.615Z,100063.34
2018-06-11T04:31:29.965Z,100058.22
2018-06-11T04:32:36.238Z,100057.16
2018-06-11T04:33:42.528Z,100055.50
2018-06-11T04:34:48.779Z,100055.70
2018-06-11T04:35:55.009Z,100060.16
2018-06-11T04:37:01.532Z,100058.27
2018-06-11T04:38:07.830Z,100061.34
2018-06-11T04:39:14.033Z,100057.50
2018-06-11T04:40:20.276Z,100061.59
2018-06-11T04:41:26.797Z,100055.30
2018-06-11T04:42:33.033Z,100060.05
2018-06-11T04:43:39.221Z,100055.03
2018-06-11T04:44:45.439Z,100062.67
2018-06-11T04:45:51.822Z,100059.73
2018-06-11T04:46:58.047Z,100062.86
2018-06-11T04:48:04.253Z,100060.73
2018-06-11T04:49:10.545Z,100059.47
2018-06-11T04:50:16.769Z,100060.09
2018-06-11T04:51:23.063Z,100060.50
2018-06-11T04:52:29.282Z,100062.70
2018-06-11T04:53:35.513Z,100063.66
2018-06-11T04:54:41.766Z,100064.30
2018-06-11T04:55:48.005Z,100070.10
2018-06-11T04:56:54.297Z,100060.73
2018-06-11T04:58:00.521Z,100065.27
2018-06-11T04:59:06.816Z,100066.36
2018-06-11T05:00:12.830Z,100068.91
2018-06-11T05:01:18.824Z,100062.91
2018-06-11T05:02:25.212Z,100073.79
2018-06-11T05:03:31.478Z,100076.55
2018-06-11T05:04:37.662Z,100070.38
2018-06-11T05:05:43.869Z,100068.89
2018-06-11T05:06:50.214Z,100072.70
2018-06-11T05:07:56.446Z,100073.50
2018-06-11T05:09:02.665Z,100075.36
2018-06-11T05:10:09.000Z,100069.62
2018-06-11T05:11:16.768Z,100077.73
2018-06-11T05:12:23.251Z,100075.70
2018-06-11T05:13:29.483Z,100072.25
2018-06-11T05:14:35.898Z,100070.05
2018-06-11T05:15:42.295Z,100077.70
2018-06-11T05:16:48.703Z,100072.04
2018-06-11T05:17:55.216Z,100074.87
2018-06-11T05:19:01.708Z,100071.41
2018-06-11T05:20:08.101Z,100070.50
2018-06-11T05:21:14.660Z,100071.62
2018-06-11T05:22:20.904Z,100073.05
2018-06-11T05:23:27.144Z,100070.34
2018-06-11T05:24:33.445Z,100073.55
2018-06-11T05:25:41.064Z,100081.27
2018-06-11T05:26:47.435Z,100082.89
2018-06-11T05:27:53.712Z,100081.09
2018-06-11T05:28:59.989Z,100080.84
2018-06-11T05:30:06.247Z,100086.32
2018-06-11T05:31:12.480Z,100086.61
2018-06-11T05:32:18.734Z,100088.55
2018-06-11T05:33:24.991Z,100094.67
2018-06-11T05:34:31.237Z,100096.77
2018-06-11T05:35:37.769Z,100098.13
2018-06-11T05:36:43.952Z,100101.27
2018-06-11T05:37:50.288Z,100105.19
2018-06-11T05:38:56.546Z,100103.33
2018-06-11T05:40:02.795Z,100107.20
2018-06-11T05:41:09.072Z,100115.15
2018-06-11T05:42:15.394Z,100104.78
2018-06-11T05:43:21.604Z,100110.03
2018-06-11T05:44:27.829Z,100110.94
2018-06-11T05:45:34.101Z,100113.30
2018-06-11T05:46:40.505Z,100107.23
2018-06-11T05:47:46.533Z,100109.47
2018-06-11T05:48:52.771Z,100102.41
2018-06-11T05:49:58.976Z,100099.85
2018-06-11T05:51:05.230Z,100099.48
2018-06-11T05:52:11.492Z,100105.64
2018-06-11T05:53:17.710Z,100104.59
2018-06-11T05:54:23.971Z,100109.14
2018-06-11T05:55:30.212Z,100111.04
2018-06-11T05:56:36.408Z,100106.59
2018-06-11T05:57:42.697Z,100106.48
2018-06-11T05:58:48.933Z,100107.29
2018-06-11T05:59:55.163Z,100109.37
2018-06-11T06:01:01.435Z,100105.53
2018-06-11T06:02:07.607Z,100109.70
2018-06-11T06:03:14.628Z,100111.79
2018-06-11T06:04:21.156Z,100101.23
2018-06-11T06:05:27.405Z,100106.95
2018-06-11T06:06:33.594Z,100108.09
2018-06-11T06:07:40.877Z,100106.73
2018-06-11T06:08:47.294Z,100105.11
2018-06-11T06:09:54.297Z,100105.97
2018-06-11T06:11:00.520Z,100107.53
2018-06-11T06:12:06.777Z,100117.00
2018-06-11T06:13:13.060Z,100116.58
2018-06-11T06:14:19.336Z,100122.54
2018-06-11T06:15:25.740Z,100120.98
2018-06-11T06:16:31.950Z,100127.95
2018-06-11T06:17:38.195Z,100122.73
2018-06-11T06:18:44.398Z,100124.30
2018-06-11T06:19:50.935Z,100123.95
2018-06-11T06:20:57.239Z,100128.37
2018-06-11T06:22:03.434Z,100129.59
2018-06-11T06:23:09.690Z,100121.47
2018-06-11T06:24:15.994Z,100122.56
2018-06-11T06:25:22.228Z,100121.95
2018-06-11T06:26:28.471Z,100116.25
2018-06-11T06:27:34.747Z,100118.28
2018-06-11T06:28:40.653Z,100109.27
2018-06-11T06:29:46.858Z,100112.44
2018-06-11T06:30:53.153Z,100109.04
2018-06-11T06:31:59.383Z,100109.37
2018-06-11T06:33:05.260Z,100112.81
2018-06-11T06:34:11.795Z,100116.41
2018-06-11T06:35:18.242Z,100108.33
2018-06-11T06:36:24.115Z,100113.38
2018-06-11T06:37:30.372Z,100115.16
2018-06-11T06:38:36.588Z,100118.91
2018-06-11T06:39:42.879Z,100117.63
2018-06-11T06:40:49.460Z,100115.64
2018-06-11T06:41:55.887Z,100109.86
2018-06-11T06:43:02.149Z,100108.23
2018-06-11T06:44:08.011Z,100106.59
2018-06-11T06:45:13.492Z,100113.84
2018-06-11T06:46:19.734Z,100108.37
2018-06-11T06:47:25.964Z,100113.93
2018-06-11T06:48:32.211Z,100111.09
2018-06-11T06:49:38.422Z,100109.98
2018-06-11T06:50:44.715Z,100113.33
2018-06-11T06:51:50.957Z,100113.09
2018-06-11T06:52:57.223Z,100110.91
2018-06-11T06:54:03.543Z,100110.86
2018-06-11T06:55:09.554Z,100108.53
2018-06-11T06:56:15.784Z,100100.38
2018-06-11T06:57:22.239Z,100110.30
2018-06-11T06:58:28.532Z,100108.69
2018-06-11T06:59:35.666Z,100106.45
2018-06-11T07:00:41.907Z,100107.38
2018-06-11T07:01:48.187Z,100107.09
2018-06-11T07:02:54.455Z,100097.73
2018-06-11T07:04:00.674Z,100101.95
2018-06-11T07:05:07.261Z,100100.20
2018-06-11T07:06:13.507Z,100101.66
2018-06-11T07:07:19.744Z,100095.73
2018-06-11T07:08:26.080Z,100100.70
2018-06-11T07:09:32.335Z,100105.17
2018-06-11T07:10:38.591Z,100107.41
2018-06-11T07:11:44.787Z,100110.00
2018-06-11T07:12:50.999Z,100109.81
2018-06-11T07:13:57.285Z,100111.52
2018-06-11T07:15:03.509Z,100095.69
2018-06-11T07:16:09.467Z,100096.91
2018-06-11T07:17:15.728Z,100103.66
2018-06-11T07:18:21.941Z,100099.99
2018-06-11T07:19:28.189Z,100112.55
2018-06-11T07:20:34.447Z,100104.97
2018-06-11T07:21:40.698Z,100102.74
2018-06-11T07:22:46.641Z,100107.78
2018-06-11T07:23:52.850Z,100105.61
2018-06-11T07:24:59.139Z,100107.66
2018-06-11T07:26:05.359Z,100096.12
2018-06-11T07:27:11.587Z,100100.47
2018-06-11T07:28:18.008Z,100101.97
2018-06-11T07:29:24.210Z,100094.27
2018-06-11T07:30:30.516Z,100097.41
2018-06-11T07:31:36.537Z,100095.83
2018-06-11T07:32:42.714Z,100096.11
2018-06-11T07:33:48.726Z,100095.69
2018-06-11T07:34:55.009Z,100106.02
2018-06-11T07:36:01.476Z,100100.39
2018-06-11T07:37:07.730Z,100100.77
2018-06-11T07:38:13.960Z,100111.03
2018-06-11T07:39:20.160Z,100111.20
2018-06-11T07:40:26.383Z,100113.20
2018-06-11T07:41:36.544Z,100107.50
2018-06-11T07:42:42.789Z,100107.56
2018-06-11T07:43:49.095Z,100109.64
2018-06-11T07:44:55.320Z,100112.88
2018-06-11T07:46:01.547Z,100111.20
2018-06-11T07:47:07.743Z,100110.30
2018-06-11T07:48:14.007Z,100106.13
2018-06-11T07:49:20.239Z,100105.52
2018-06-11T07:50:26.427Z,100108.97
2018-06-11T07:51:32.374Z,100109.95
2018-06-11T07:52:38.559Z,100106.18
2018-06-11T07:53:44.803Z,100113.66
2018-06-11T07:54:51.458Z,100105.70
2018-06-11T07:55:57.734Z,100102.04
2018-06-11T07:57:03.590Z,100108.44
2018-06-11T07:58:09.818Z,100102.45
2018-06-11T07:59:16.062Z,100105.89
2018-06-11T08:00:22.314Z,100112.70
2018-06-11T08:01:28.575Z,100111.37
2018-06-11T08:02:34.780Z,100112.25
2018-06-11T08:03:41.074Z,100114.18
2018-06-11T08:04:47.316Z,100120.64
2018-06-11T08:05:53.582Z,100125.80
2018-06-11T08:06:59.801Z,100126.30
2018-06-11T08:08:05.409Z,100132.02
2018-06-11T08:09:11.300Z,100124.92
2018-06-11T08:10:17.570Z,100132.16
2018-06-11T08:11:23.755Z,100126.89
2018-06-11T08:12:29.669Z,100136.33
2018-06-11T08:13:35.963Z,100136.15
2018-06-11T08:14:42.162Z,100137.94
2018-06-11T08:15:48.405Z,100133.80
2018-06-11T08:16:54.649Z,100138.13
2018-06-11T08:18:00.893Z,100142.36
2018-06-11T08:19:06.771Z,100134.27
2018-06-11T08:20:13.032Z,100138.03
2018-06-11T08:21:19.315Z,100136.23
2018-06-11T08:22:25.532Z,100138.91
2018-06-11T08:23:31.759Z,100144.08
2018-06-11T08:24:37.988Z,100146.70
2018-06-11T08:25:44.160Z,100146.38
2018-06-11T08:26:50.345Z,100159.20
2018-06-11T08:27:56.546Z,100157.89
2018-06-11T08:29:02.768Z,100158.97
2018-06-11T08:30:08.889Z,100154.88
2018-06-11T08:31:15.349Z,100151.80
2018-06-11T08:32:21.456Z,100142.70
2018-06-11T08:33:27.713Z,100147.97
2018-06-11T08:34:33.932Z,100152.05
2018-06-11T08:35:40.282Z,100149.17
2018-06-11T08:36:46.554Z,100149.11
2018-06-11T08:37:52.835Z,100155.00
2018-06-11T08:38:59.028Z,100157.46
2018-06-11T08:40:04.668Z,100157.71
2018-06-11T08:41:10.908Z,100152.32
2018-06-11T08:42:17.110Z,100153.20
2018-06-11T08:43:23.355Z,100166.33
2018-06-11T08:44:29.528Z,100168.64
2018-06-11T08:45:35.782Z,100169.84
2018-06-11T08:46:41.644Z,100171.14
2018-06-11T08:47:47.561Z,100170.45
2018-06-11T08:48:53.788Z,100167.02
2018-06-11T08:50:00.084Z,100164.69
2018-06-11T08:51:06.373Z,100164.97
2018-06-11T08:52:12.400Z,100163.13
2018-06-11T08:53:18.673Z,100160.80
2018-06-11T08:54:25.128Z,100163.88
2018-06-11T08:55:31.469Z,100157.34
2018-06-11T08:56:37.414Z,100165.31
2018-06-11T08:57:43.649Z,100162.42
2018-06-11T08:58:49.884Z,100158.81
2018-06-11T08:59:56.209Z,100162.02
2018-06-11T09:01:02.675Z,100162.86
2018-06-11T09:02:08.866Z,100169.30
2018-06-11T09:03:15.196Z,100159.98
2018-06-11T09:04:21.679Z,100157.76
2018-06-11T09:05:27.944Z,100162.90
2018-06-11T09:06:34.140Z,100163.05
2018-06-11T09:07:40.454Z,100170.06
2018-06-11T09:08:46.651Z,100162.39
2018-06-11T09:09:52.901Z,100168.08
2018-06-11T09:10:59.160Z,100170.91
2018-06-11T09:12:04.999Z,100169.95
2018-06-11T09:13:11.230Z,100166.75
2018-06-11T09:14:17.430Z,100163.95
2018-06-11T09:15:23.679Z,100165.59
2018-06-11T09:16:29.880Z,100160.44
2018-06-11T09:17:36.053Z,100159.15
2018-06-11T09:18:42.280Z,100161.99
2018-06-11T09:19:48.492Z,100163.24
2018-06-11T09:20:54.840Z,100161.03
2018-06-11T09:22:01.069Z,100162.95
2018-06-11T09:23:07.975Z,100161.36
2018-06-11T09:24:14.192Z,100154.61
2018-06-11T09:25:20.462Z,100151.00
2018-06-11T09:26:26.682Z,100153.13
2018-06-11T09:27:32.695Z,100148.28
2018-06-11T09:28:38.903Z,100151.91
2018-06-11T09:29:45.254Z,100145.37
2018-06-11T09:30:51.292Z,100148.56
2018-06-11T09:31:57.525Z,100145.25
2018-06-11T09:33:03.738Z,100148.13
2018-06-11T09:34:09.959Z,100143.91
2018-06-11T09:35:15.961Z,100147.59
2018-06-11T09:36:22.461Z,100150.66
2018-06-11T09:37:28.721Z,100157.34
2018-06-11T09:38:35.016Z,100151.11
2018-06-11T09:39:41.255Z,100151.02
2018-06-11T09:40:47.221Z,100149.84
2018-06-11T09:41:53.446Z,100157.86
2018-06-11T09:42:59.677Z,100156.56
2018-06-11T09:44:05.263Z,100147.52
2018-06-11T09:45:11.734Z,100144.59
2018-06-11T09:46:17.992Z,100143.28
2018-06-11T09:47:24.326Z,100150.36
2018-06-11T09:48:30.582Z,100148.45
2018-06-11T09:49:36.803Z,100153.82
2018-06-11T09:50:43.068Z,100148.94
2018-06-11T09:51:49.381Z,100146.41
2018-06-11T09:52:55.591Z,100144.16
2018-06-11T09:54:01.868Z,100146.09
2018-06-11T09:55:07.826Z,100145.63
2018-06-11T09:56:14.098Z,100150.49
2018-06-11T09:57:20.332Z,100150.75
2018-06-11T09:58:26.601Z,100158.23
2018-06-11T09:59:32.834Z,100144.30
2018-06-11T10:00:39.130Z,100153.02
2018-06-11T10:01:45.344Z,100152.91
2018-06-11T10:02:51.599Z,100148.79
2018-06-11T10:03:58.009Z,100144.06
2018-06-11T10:05:04.295Z,100142.33
2018-06-11T10:06:10.500Z,100141.70
2018-06-11T10:07:17.535Z,100140.55
2018-06-11T10:08:23.764Z,100140.39
2018-06-11T10:09:30.028Z,100137.58
2018-06-11T10:10:35.987Z,100142.06
2018-06-11T10:11:42.566Z,100140.30
2018-06-11T10:12:48.959Z,100136.86
2018-06-11T10:13:55.164Z,100138.28
2018-06-11T10:15:01.464Z,100139.70
2018-06-11T10:16:07.790Z,100134.45
2018-06-11T10:17:14.002Z,100128.11
2018-06-11T10:18:20.287Z,100129.59
2018-06-11T10:19:26.494Z,100128.37
2018-06-11T10:20:32.355Z,100126.06
2018-06-11T10:21:38.634Z,100127.56
2018-06-11T10:22:44.886Z,100130.59
2018-06-11T10:23:51.102Z,100130.74
2018-06-11T10:24:57.418Z,100129.30
2018-06-11T10:26:03.818Z,100129.16
2018-06-11T10:27:10.070Z,100127.59
2018-06-11T10:28:16.320Z,100119.96
2018-06-11T10:29:22.568Z,100125.70
2018-06-11T10:30:28.770Z,100129.15
2018-06-11T10:31:35.029Z,100132.64
2018-06-11T10:32:41.224Z,100133.13
2018-06-11T10:33:47.546Z,100128.70
2018-06-11T10:34:53.577Z,100130.82
2018-06-11T10:35:59.790Z,100134.00
2018-06-11T10:37:06.178Z,100133.94
2018-06-11T10:38:12.449Z,100136.32
2018-06-11T10:39:18.645Z,100139.47
2018-06-11T10:40:24.856Z,100137.34
2018-06-11T10:41:31.152Z,100136.25
2018-06-11T10:42:37.451Z,100143.20
2018-06-11T10:43:43.759Z,100152.63
2018-06-11T10:44:50.004Z,100143.42
2018-06-11T10:45:56.223Z,100147.76
2018-06-11T10:47:02.536Z,100137.88
2018-06-11T10:48:08.799Z,100125.13
2018-06-11T10:49:15.019Z,100116.03
2018-06-11T10:50:21.243Z,100117.53
2018-06-11T10:51:27.702Z,100109.88
2018-06-11T10:52:33.953Z,100109.31
2018-06-11T10:53:40.179Z,100109.34
2018-06-11T10:54:46.352Z,100110.16
2018-06-11T10:55:52.642Z,100108.50
2018-06-11T10:56:58.897Z,100104.39
2018-06-11T10:58:05.218Z,100103.16
2018-06-11T10:59:11.612Z,100100.61
2018-06-11T11:00:17.962Z,100093.28
2018-06-11T11:01:24.227Z,100095.46
2018-06-11T11:02:30.644Z,100091.33
2018-06-11T11:03:36.921Z,100089.84
2018-06-11T11:04:43.126Z,100087.39
2018-06-11T11:05:49.387Z,100093.84
2018-06-11T11:06:55.659Z,100091.13
2018-06-11T11:08:01.867Z,100092.37
2018-06-11T11:09:08.101Z,100094.28
2018-06-11T11:10:14.003Z,100098.00
2018-06-11T11:11:20.318Z,100093.58
2018-06-11T11:12:26.565Z,100091.92
2018-06-11T11:13:32.816Z,100091.65
2018-06-11T11:14:39.110Z,100097.21
2018-06-11T11:15:45.340Z,100090.45
2018-06-11T11:16:51.585Z,100097.46
2018-06-11T11:17:57.774Z,100100.78
2018-06-11T11:19:04.187Z,100097.09
2018-06-11T11:20:10.548Z,100094.82
2018-06-11T11:21:16.797Z,100099.28
2018-06-11T11:22:23.081Z,100105.47
2018-06-11T11:23:29.314Z,100097.15
2018-06-11T11:24:35.592Z,100097.34
2018-06-11T11:25:41.870Z,100098.86
2018-06-11T11:26:48.172Z,100098.86
2018-06-11T11:27:54.427Z,100099.44
2018-06-11T11:29:00.608Z,100095.30
2018-06-11T11:30:06.517Z,100099.59
2018-06-11T11:31:12.849Z,100098.20
2018-06-11T11:32:19.092Z,100095.19
2018-06-11T11:33:25.325Z,100093.97
2018-06-11T11:34:31.535Z,100091.97
2018-06-11T11:35:37.712Z,100088.70
2018-06-11T11:36:43.622Z,100084.20
2018-06-11T11:37:49.858Z,100083.95
2018-06-11T11:38:56.152Z,100088.16
2018-06-11T11:40:02.323Z,100088.22
2018-06-11T11:41:08.512Z,100081.48
2018-06-11T11:42:14.719Z,100076.44
2018-06-11T11:43:21.002Z,100076.30
2018-06-11T11:44:27.411Z,100072.23
2018-06-11T11:45:33.658Z,100066.44
2018-06-11T11:46:39.887Z,100063.41
2018-06-11T11:47:46.118Z,100060.28
2018-06-11T11:48:53.246Z,100062.56
2018-06-11T11:49:59.495Z,100061.38
2018-06-11T11:51:05.440Z,100056.30
2018-06-11T11:52:11.637Z,100048.59
2018-06-11T11:53:18.001Z,100048.53
2018-06-11T11:54:24.266Z,100045.03
2018-06-11T11:55:30.482Z,100046.33
2018-06-11T11:56:36.696Z,100044.22
2018-06-11T11:57:42.914Z,100044.64
2018-06-11T11:58:49.129Z,100038.09
2018-06-11T11:59:55.372Z,100038.69
2018-06-11T12:01:01.602Z,100032.05
2018-06-11T12:02:07.856Z,100029.98
2018-06-11T12:03:14.121Z,100028.64
2018-06-11T12:04:20.355Z,100002.05
2018-06-11T12:05:26.566Z,100021.00
2018-06-11T12:06:32.789Z,100013.46
2018-06-11T12:07:38.906Z,100023.00
2018-06-11T12:08:45.196Z,100015.61
2018-06-11T12:09:51.773Z,100011.22
2018-06-11T12:10:58.050Z,100017.13
2018-06-11T12:12:04.264Z,100010.34
2018-06-11T12:13:10.470Z,100001.32
2018-06-11T12:14:16.707Z,100002.89
2018-06-11T12:15:22.949Z,100004.45
2018-06-11T12:16:29.303Z,100006.84
2018-06-11T12:17:35.509Z,100000.11
2018-06-11T12:18:41.755Z,99999.77
2018-06-11T12:19:47.996Z,100004.05
2018-06-11T12:20:54.255Z,100002.69
2018-06-11T12:22:00.541Z,100000.91
2018-06-11T12:23:06.765Z,99995.44
2018-06-11T12:24:13.000Z,99988.90
2018-06-11T12:25:19.018Z,99991.80
2018-06-11T12:26:24.603Z,99983.34
2018-06-11T12:27:30.817Z,99975.28
2018-06-11T12:28:36.792Z,99972.91
2018-06-11T12:29:42.967Z,99977.44
2018-06-11T12:30:49.209Z,99971.98
2018-06-11T12:31:55.127Z,99971.02
2018-06-11T12:33:01.101Z,99976.48
2018-06-11T12:34:06.984Z,99974.86
2018-06-11T12:35:13.211Z,99974.00
2018-06-11T12:36:19.435Z,99974.45
2018-06-11T12:37:25.744Z,99982.20
2018-06-11T12:38:31.669Z,99974.79
2018-06-11T12:39:37.627Z,99970.16
2018-06-11T12:40:43.914Z,99963.54